ADDS METAR Data INFO
IDs: Format: Raw Decoded Include TAF

Data at: 0658 UTC 18 Feb 2018

KGVT 180630Z AUTO 00000KT 7SM CLR 07/07 A3019 RMK AO2
KGVT 180610Z AUTO 00000KT 4SM BR CLR 07/07 A3020 RMK AO2
KGVT 180550Z AUTO 00000KT 10SM CLR 07/07 A3020 RMK AO2
KGVT 180530Z AUTO 00000KT 7SM CLR 07/07 A3021 RMK AO2
KGVT 180510Z AUTO 00000KT 7SM CLR 07/07 A3020 RMK AO2
KGVT 180450Z AUTO 00000KT 10SM CLR 08/08 A3021 RMK AO2
KGVT 180430Z AUTO 00000KT 7SM CLR 08/08 A3021 RMK AO2
KGVT 180410Z AUTO 00000KT 10SM CLR 08/08 A3021 RMK AO2
KGVT 180350Z AUTO 00000KT 10SM CLR 09/08 A3021 RMK AO2
KGVT 180330Z AUTO 00000KT 10SM CLR 10/09 A3021 RMK AO2
KGVT 180310Z AUTO 00000KT 10SM CLR 09/09 A3021 RMK AO2
KGVT 180250Z AUTO 00000KT 10SM CLR 09/09 A3021 RMK AO2
KGVT 180230Z AUTO 00000KT 10SM CLR 10/08 A3021 RMK AO2
KGVT 180210Z AUTO 00000KT 10SM CLR 10/10 A3021 RMK AO2
KGVT 180150Z AUTO 00000KT 10SM CLR 10/09 A3020 RMK AO2
KGVT 180130Z AUTO 00000KT 10SM CLR 10/09 A3019 RMK AO2
KGVT 180110Z AUTO 00000KT 10SM CLR 10/08 A3019 RMK AO2
KGVT 180050Z AUTO 00000KT 10SM CLR 11/08 A3019 RMK AO2
KGVT 180030Z AUTO 00000KT 10SM CLR 12/09 A3019 RMK AO2
KGVT 180010Z AUTO 00000KT 10SM CLR 13/08 A3017 RMK AO2
KGVT 172350Z AUTO 00000KT 10SM CLR 15/08 A3017 RMK AO2
KGVT 172330Z AUTO 00000KT 10SM CLR 15/08 A3016 RMK AO2
KGVT 172310Z AUTO 00000KT 10SM CLR 15/09 A3016 RMK AO2
KGVT 172250Z AUTO 00000KT 10SM SCT024 15/09 A3016 RMK AO2
KGVT 172230Z AUTO 00000KT 10SM OVC024 15/10 A3016 RMK AO2
KGVT 172210Z AUTO 01004KT 10SM OVC024 15/10 A3015 RMK AO2
KGVT 172150Z AUTO 01004KT 10SM BKN024 15/09 A3014 RMK AO2
KGVT 172130Z AUTO 32004KT 10SM SCT022 16/09 A3014 RMK AO2
KGVT 172110Z AUTO 36005KT 10SM SCT020 16/09 A3014 RMK AO2
KGVT 172050Z AUTO 00000KT 10SM OVC020 15/09 A3014 RMK AO2
KGVT 172030Z AUTO 31003KT 10SM OVC016 14/09 A3014 RMK AO2
KGVT 172010Z AUTO 30005KT 10SM BKN014 13/08 A3014 RMK AO2
KGVT 171950Z AUTO 27004KT 10SM OVC012 13/09 A3013 RMK AO2
KGVT 171930Z AUTO 30005KT 10SM OVC010 12/08 A3014 RMK AO2
KGVT 171910Z AUTO 28005KT 10SM OVC010 12/09 A3014 RMK AO2
KGVT 171850Z AUTO 27003KT 10SM OVC008 11/08 A3014 RMK AO2
KGVT 171830Z AUTO 00000KT 10SM OVC006 11/08 A3014 RMK AO2
KGVT 171810Z AUTO 00000KT 10SM OVC006 10/08 A3014 RMK AO2
KGVT 171750Z AUTO 22003KT 10SM OVC006 09/08 A3014 RMK AO2
KGVT 171730Z AUTO 23003KT 10SM OVC004 09/08 A3015 RMK AO2
KGVT 171710Z AUTO 00000KT 10SM OVC004 08/07 A3015 RMK AO2
KGVT 171650Z AUTO 00000KT 10SM OVC004 08/07 A3017 RMK AO2
KGVT 171630Z AUTO 00000KT 10SM OVC004 08/07 A3016 RMK AO2
KGVT 171610Z AUTO 24003KT 7SM -DZ OVC004 08/07 A3016 RMK AO2
KGVT 171550Z AUTO 19003KT 4SM RA OVC004 08/07 A3014 RMK AO2 P0003
KGVT 171530Z AUTO 19006KT 4SM -RA BKN004 BKN026 OVC035 07/07 A3014 RMK AO2 P0002
KGVT 171510Z AUTO 17007KT 5SM RA SCT004 BKN025 OVC037 07/07 A3013 RMK AO2 P0001
KGVT 171450Z AUTO 00000KT 2SM UP BKN004 BKN008 OVC025 07/07 A3015 RMK AO2 P0035
KGVT 171430Z AUTO 22003KT 1 1/4SM -SN BKN004 OVC008 07/07 A3014 RMK AO2 P0028
KGVT 171410Z AUTO 00000KT 1/2SM -SN OVC004 07/07 A3013 RMK AO2 P0012
KGVT 171350Z AUTO 15003KT 3/4SM -SN BKN004 BKN016 OVC025 07/07 A3008 RMK AO2 P0024
KGVT 171330Z AUTO 16006KT 5SM -RA SCT033 BKN039 OVC060 07/07 A3009 RMK AO2 P0002
KGVT 171310Z AUTO 12003KT 7SM SCT028 BKN033 OVC041 07/06 A3008 RMK AO2
KGVT 171250Z AUTO 00000KT 7SM DZ OVC026 07/06 A3011 RMK AO2 LTG DSNT N AND NW
KGVT 171230Z AUTO 00000KT 10SM BKN026 OVC031 07/06 A3011 RMK AO2 LTG DSNT W
KGVT 171210Z AUTO 00000KT 5SM BR SCT007 OVC026 07/06 A3011 RMK AO2
KGVT 171150Z AUTO 31005KT 7SM BKN007 BKN010 OVC022 07/06 A3012 RMK AO2
KGVT 171130Z AUTO 32004KT 7SM OVC007 07/06 A3011 RMK AO2 LTG DSNT N
KGVT 171110Z AUTO 31007KT 5SM BR OVC005 07/06 A3010 RMK AO2
KGVT 171050Z AUTO 31010G14KT 2 1/2SM DZ OVC005 07/06 A3012 RMK AO2
KGVT 171030Z AUTO 31013G18KT 4SM BR OVC005 07/06 A3011 RMK AO2
KGVT 171010Z AUTO 31012G17KT 3SM BR OVC005 07/07 A3011 RMK AO2
KGVT 170950Z AUTO 30009KT 3SM BR BKN005 OVC012 07/07 A3010 RMK AO2
KGVT 170930Z AUTO 28007KT 2 1/2SM -RA SCT007 OVC014 07/06 A3009 RMK AO2
KGVT 170910Z AUTO 29006KT 5SM HZ OVC014 08/05 A3007 RMK AO2
KGVT 170850Z AUTO 29008KT 10SM OVC016 08/05 A3007 RMK AO2
KGVT 170830Z AUTO 28005KT 10SM OVC018 08/05 A3007 RMK AO2
KGVT 170810Z AUTO 00000KT 10SM OVC020 08/05 A3007 RMK AO2
KGVT 170750Z AUTO 00000KT 10SM OVC020 08/05 A3006 RMK AO2
KGVT 170730Z AUTO 00000KT 10SM OVC020 08/05 A3007 RMK AO2
KGVT 170710Z AUTO 00000KT 10SM OVC020 08/05 A3008 RMK AO2
KGVT 170650Z AUTO 00000KT 10SM OVC020 08/05 A3008 RMK AO2
KGVT 170630Z AUTO 00000KT 10SM OVC020 08/05 A3008 RMK AO2
KGVT 170610Z AUTO 00000KT 10SM OVC022 08/05 A3010 RMK AO2
KGVT 170550Z AUTO 00000KT 10SM OVC022 08/05 A3011 RMK AO2
KGVT 170530Z AUTO 00000KT 10SM -RA OVC022 08/05 A3013 RMK AO2
KGVT 170510Z AUTO 00000KT 10SM RA OVC022 09/04 A3012 RMK AO2
KGVT 170450Z AUTO 00000KT 10SM -DZ OVC022 09/03 A3015 RMK AO2
KGVT 170430Z AUTO 00000KT 10SM OVC022 09/03 A3014 RMK AO2
KGVT 170410Z AUTO 00000KT 10SM OVC024 09/03 A3016 RMK AO2
KGVT 170350Z AUTO 00000KT 10SM OVC026 09/03 A3017 RMK AO2
KGVT 170330Z AUTO 00000KT 10SM OVC026 09/03 A3018 RMK AO2
KGVT 170310Z AUTO 01005KT 10SM OVC028 09/02 A3018 RMK AO2
KGVT 170250Z AUTO 01004KT 10SM OVC028 09/02 A3019 RMK AO2
KGVT 170230Z AUTO 02006KT 10SM OVC028 09/02 A3019 RMK AO2
KGVT 170210Z AUTO 01004KT 10SM OVC028 09/02 A3020 RMK AO2
KGVT 170150Z AUTO 02007KT 10SM OVC028 09/02 A3020 RMK AO2
KGVT 170130Z AUTO 02005KT 10SM OVC028 09/02 A3021 RMK AO2
KGVT 170110Z AUTO 02004KT 10SM OVC028 09/02 A3022 RMK AO2
KGVT 170050Z AUTO 01008KT 10SM OVC028 09/02 A3023 RMK AO2
KGVT 170030Z AUTO 01006KT 10SM OVC028 09/02 A3023 RMK AO2
KGVT 170010Z AUTO 36007KT 10SM OVC028 09/02 A3023 RMK AO2
KGVT 162350Z AUTO 01008KT 10SM OVC028 10/01 A3023 RMK AO2
KGVT 162335Z AUTO 01006KT 10SM OVC028 10/02 A3024 RMK AO2
KGVT 162310Z AUTO 36009KT 10SM OVC026 10/02 A3023 RMK AO2
KGVT 162250Z AUTO 36009KT 10SM OVC026 11/02 A3024 RMK AO2
KGVT 162230Z AUTO 35011KT 10SM OVC026 11/02 A3024 RMK AO2
KGVT 162210Z AUTO 01011G15KT 10SM OVC026 11/02 A3023 RMK AO2
KGVT 162150Z AUTO 01010KT 10SM OVC026 11/02 A3023 RMK AO2
KGVT 162130Z AUTO 36009KT 10SM OVC026 11/02 A3023 RMK AO2
KGVT 162110Z AUTO 36014KT 10SM OVC028 12/02 A3023 RMK AO2
KGVT 162050Z AUTO 01008G15KT 10SM OVC028 12/03 A3023 RMK AO2
KGVT 162030Z AUTO 01009G17KT 10SM OVC028 12/03 A3023 RMK AO2
KGVT 162010Z AUTO 36014G18KT 10SM OVC030 12/03 A3023 RMK AO2
KGVT 161950Z AUTO 02010G19KT 10SM OVC030 12/03 A3024 RMK AO2
KGVT 161930Z AUTO 01014G20KT 10SM OVC030 12/03 A3024 RMK AO2
KGVT 161910Z AUTO 01014G18KT 10SM OVC030 13/03 A3024 RMK AO2